Kezdőlap
METAR-TAF:

METAR-TAF

Repülőterek :

William H. Morse State Airport

Bennington, Vermont, Amerikai Egyesült Államok

földrajzi szélesség: 42-53-24N, földrajzi hosszúság: 073-14-47W, magasság: 252 m

Jelenlegi meteorológiai megfigyelések

A jelentés 23 perccel ezelõtt készült, 07:08 UTC
Délkeleti szél 11 kt széllökések: 32 kt, keleti és déli között változik
Hőmérséklet 5°C
Páratartalom 75%
Légköri nyomás 999 hPa
Látótávolság: 16.1 km
Szakadozott felhőzet 1800 lábon
Szakadozott felhőzet 9000 lábon

METAR: KDDH 270708Z AUTO 14011G32KT 100V170 10SM BKN018 BKN090 05/01 A2949 RMK AO2 PK WND 12032/0659 PRESFR T00500006

Idő: 02:31 (07:31 UTC)


TAF: hiányzik

Meteorológiai megfigyelések és előrejelzések több, mint 4000 repülőtéren (METAR és TAF jelentéseket).

A térképen piros és sárga pontok jelzik az elérhető meteorológiai állomásokat.

Mozgassa az egeret a pont fölött, hogy megjelenjen az állomás neve.

Azután kattintson az időjárási megfigyelések és előrejelzések megtekintéséhez.

A térkép megváltoztatása: kattintson a fekete keresztel jelölt zöld gombra ráközelítéshez, a vonallal jelölt zöld gombra távolításhoz, vagy a zöld nyilakra a szomszédos térképek eléréséhez.


METAR-TAF: